Time;durP1;ratioP1;P1;durP2;ratioP2;P2;SDS_P1;SDS_P2;PMS_P1;PMS_P2;Temp;Humidity;BMP_temperature;BMP_pressure;BME280_temperature;BME280_humidity;BME280_pressure;Samples;Min_cycle;Max_cycle;Signal;HPM_P1;HPM_P2
2023/11/04 00:00:49;;;;;;;;;;;;;;;23.20;34.92;98602.81;4215722;28;19924;-62
2023/11/04 00:03:10;;;;;;;;;;;;;;;23.24;35.03;98600.56;4215739;28;19931;-63
2023/11/04 00:05:12;;;;;;;;;;;;;;;23.25;34.88;98594.19;4215702;28;19930;-63
2023/11/04 00:07:15;;;;;;;;;;;;;;;23.26;34.99;98590.50;4215715;28;19944;-62
2023/11/04 00:09:17;;;;;;;;;;;;;;;23.26;34.62;98591.31;4215605;28;20027;-63
2023/11/04 00:11:20;;;;;;;;;;;;;;;23.27;34.74;98586.81;4215784;28;20386;-63
2023/11/04 00:13:22;;;;;;;;;;;;;;;23.26;34.96;98585.13;4215740;28;19947;-63
2023/11/04 00:15:24;;;;;;;;;;;;;;;23.25;34.63;98576.25;4215338;28;19931;-63
2023/11/04 00:17:26;;;;;;;;;;;;;;;23.24;35.08;98566.53;4215261;28;19931;-63
2023/11/04 00:19:28;;;;;;;;;;;;;;;23.24;34.83;98577.25;4215018;28;20023;-63
2023/11/04 00:21:30;;;;;;;;;;;;;;;23.24;35.01;98574.56;4215322;28;20429;-63
2023/11/04 00:23:32;;;;;;;;;;;;;;;23.26;35.03;98574.41;4215331;28;19928;-63
2023/11/04 00:25:33;;;;;;;;;;;;;;;23.27;34.82;98571.53;4215484;28;19924;-63
2023/11/04 00:27:35;;;;;;;;;;;;;;;23.29;34.92;98566.81;4215541;28;19924;-63
2023/11/04 00:29:36;;;;;;;;;;;;;;;23.30;35.02;98567.63;4215223;28;19969;-63
2023/11/04 00:31:38;;;;;;;;;;;;;;;23.32;34.94;98559.38;4197544;28;20009;-63
2023/11/04 00:33:39;;;;;;;;;;;;;;;23.31;35.03;98557.72;4214937;28;19931;-63
2023/11/04 00:35:41;;;;;;;;;;;;;;;23.30;34.96;98562.28;4215044;28;20026;-63
2023/11/04 00:37:43;;;;;;;;;;;;;;;23.29;34.69;98557.94;4215310;28;20010;-63
2023/11/04 00:39:45;;;;;;;;;;;;;;;23.28;34.78;98554.44;4215014;28;19924;-63
2023/11/04 00:41:46;;;;;;;;;;;;;;;23.28;35.03;98556.25;4215022;28;19924;-63
2023/11/04 00:43:48;;;;;;;;;;;;;;;23.28;35.04;98551.75;4214900;28;20052;-63
2023/11/04 00:45:49;;;;;;;;;;;;;;;23.21;34.80;98537.44;4215103;28;20375;-63
2023/11/04 00:47:51;;;;;;;;;;;;;;;23.33;34.89;98548.50;4214766;28;20042;-63
2023/11/04 00:49:54;;;;;;;;;;;;;;;23.34;34.89;98549.31;4214815;28;19928;-63
2023/11/04 00:52:02;;;;;;;;;;;;;;;23.35;34.97;98550.97;4214984;28;19928;-63
2023/11/04 00:54:04;;;;;;;;;;;;;;;23.35;34.75;98550.97;4214871;28;20028;-65
2023/11/04 00:56:05;;;;;;;;;;;;;;;23.33;35.08;98553.84;4214780;28;19931;-65
2023/11/04 00:58:07;;;;;;;;;;;;;;;23.33;34.86;98542.28;4214711;28;19965;-64
2023/11/04 01:00:10;;;;;;;;;;;;;;;23.33;34.88;98544.97;4214718;28;19952;-65
2023/11/04 01:02:11;;;;;;;;;;;;;;;23.32;34.72;98536.09;4214417;28;19924;-63
2023/11/04 01:04:13;;;;;;;;;;;;;;;23.31;34.88;98529.06;4214790;28;19927;-65
2023/11/04 01:06:15;;;;;;;;;;;;;;;23.31;34.83;98528.22;4214848;28;19924;-63
2023/11/04 01:08:16;;;;;;;;;;;;;;;23.33;35.31;98524.34;4214789;28;19928;-63
2023/11/04 01:10:18;;;;;;;;;;;;;;;23.35;35.14;98526.84;4214840;28;19986;-64
2023/11/04 01:12:19;;;;;;;;;;;;;;;23.36;34.77;98521.28;4215143;28;20330;-65
2023/11/04 01:14:21;;;;;;;;;;;;;;;23.37;34.82;98525.63;4214672;28;19924;-63
2023/11/04 01:16:22;;;;;;;;;;;;;;;23.38;34.92;98521.06;4214161;28;19936;-63
2023/11/04 01:18:24;;;;;;;;;;;;;;;23.38;34.80;98518.38;4214644;28;20289;-64
2023/11/04 01:20:26;;;;;;;;;;;;;;;23.39;35.02;98518.22;4214626;28;19930;-64
2023/11/04 01:22:27;;;;;;;;;;;;;;;23.38;34.92;98519.25;4214572;28;19924;-64
2023/11/04 01:24:29;;;;;;;;;;;;;;;23.36;34.76;98515.09;4214441;28;19977;-64
2023/11/04 01:26:30;;;;;;;;;;;;;;;23.36;35.07;98513.22;4214294;28;19924;-63
2023/11/04 01:28:32;;;;;;;;;;;;;;;23.36;34.86;98509.72;4214435;28;19936;-63
2023/11/04 01:30:33;;;;;;;;;;;;;;;23.38;35.07;98508.50;4214445;28;19932;-64
2023/11/04 01:32:35;;;;;;;;;;;;;;;23.39;35.07;98507.50;4214132;28;19953;-64
2023/11/04 01:34:37;;;;;;;;;;;;;;;23.40;34.81;98500.25;4214264;28;20011;-64
2023/11/04 01:36:39;;;;;;;;;;;;;;;23.41;34.78;98499.25;4214115;28;19954;-64
2023/11/04 01:38:41;;;;;;;;;;;;;;;23.41;34.67;98492.00;4214147;28;19924;-63
2023/11/04 01:40:51;;;;;;;;;;;;;;;23.42;34.67;98491.00;4214271;28;20024;-64
2023/11/04 01:42:53;;;;;;;;;;;;;;;23.43;34.87;98494.53;4214092;28;19935;-64
2023/11/04 01:44:54;;;;;;;;;;;;;;;23.41;34.74;98496.56;4214377;28;20385;-64
2023/11/04 01:46:56;;;;;;;;;;;;;;;23.40;34.91;98506.47;4214180;28;20015;-64
2023/11/04 01:48:58;;;;;;;;;;;;;;;23.40;34.99;98487.69;4213873;28;19930;-64
2023/11/04 01:50:59;;;;;;;;;;;;;;;23.40;34.85;98490.38;4214197;28;20420;-64
2023/11/04 01:53:01;;;;;;;;;;;;;;;23.41;34.92;98486.66;4214160;28;19935;-63
2023/11/04 01:55:03;;;;;;;;;;;;;;;23.44;34.77;98482.78;4214200;28;20039;-64
2023/11/04 01:57:04;;;;;;;;;;;;;;;23.46;35.01;98478.03;4214063;28;19923;-64
2023/11/04 01:59:06;;;;;;;;;;;;;;;23.47;34.73;98476.19;4213975;28;20019;-64
2023/11/04 02:01:08;;;;;;;;;;;;;;;23.46;34.66;98480.72;4213583;28;20351;-64
2023/11/04 02:03:10;;;;;;;;;;;;;;;23.48;34.97;98480.53;4214163;28;20007;-64
2023/11/04 02:05:12;;;;;;;;;;;;;;;23.47;34.92;98482.38;4213884;28;19953;-65
2023/11/04 02:07:13;;;;;;;;;;;;;;;23.45;34.76;98485.25;4214139;28;19928;-65
2023/11/04 02:09:15;;;;;;;;;;;;;;;23.44;34.68;98480.09;4213935;28;19928;-65
2023/11/04 02:11:17;;;;;;;;;;;;;;;23.43;34.90;98476.56;4213543;28;20432;-64
2023/11/04 02:13:18;;;;;;;;;;;;;;;23.44;34.90;98470.19;4213845;28;19928;-64
2023/11/04 02:15:20;;;;;;;;;;;;;;;23.45;34.85;98465.63;4213467;28;19924;-65
2023/11/04 02:17:22;;;;;;;;;;;;;;;23.47;35.01;98468.16;4213531;28;19935;-65
2023/11/04 02:19:24;;;;;;;;;;;;;;;23.49;34.78;98466.06;4213845;28;20304;-64
2023/11/04 02:21:26;;;;;;;;;;;;;;;23.52;34.58;98463.03;4213979;28;19990;-64
2023/11/04 02:23:27;;;;;;;;;;;;;;;23.50;35.06;98447.13;4213814;28;19924;-65
2023/11/04 02:25:33;;;;;;;;;;;;;;;23.50;34.65;98441.75;4214017;28;20309;-64
2023/11/04 02:27:35;;;;;;;;;;;;;;;23.50;35.00;98428.34;4213964;28;20390;-64
2023/11/04 02:29:38;;;;;;;;;;;;;;;23.48;34.69;98422.34;4213313;28;19928;-65
2023/11/04 02:31:40;;;;;;;;;;;;;;;23.46;34.73;98421.69;4213788;28;19930;-65
2023/11/04 02:33:41;;;;;;;;;;;;;;;23.45;35.07;98420.88;4213580;28;19924;-64
2023/11/04 02:35:44;;;;;;;;;;;;;;;23.44;34.59;98411.16;4213504;28;19924;-65
2023/11/04 02:37:47;;;;;;;;;;;;;;;23.46;34.88;98405.59;4213697;28;19924;-65
2023/11/04 02:39:48;;;;;;;;;;;;;;;23.49;34.72;98405.22;4213942;28;20388;-65
2023/11/04 02:41:50;;;;;;;;;;;;;;;23.50;34.70;98390.78;4213759;28;19969;-64
2023/11/04 02:43:52;;;;;;;;;;;;;;;23.52;34.71;98394.09;4213458;28;19957;-64
2023/11/04 02:45:53;;;;;;;;;;;;;;;23.52;34.65;98380.66;4213733;28;20335;-64
2023/11/04 02:47:55;;;;;;;;;;;;;;;23.54;34.63;98375.94;4195779;28;19951;-64
2023/11/04 02:49:56;;;;;;;;;;;;;;;23.51;34.85;98367.47;4213289;28;19924;-64
2023/11/04 02:51:58;;;;;;;;;;;;;;;23.50;34.83;98365.78;4213434;28;20011;-64
2023/11/04 02:54:11;;;;;;;;;;;;;;;23.49;34.67;98367.66;4213443;28;19924;-64
2023/11/04 02:56:15;;;;;;;;;;;;;;;23.47;34.74;98361.66;4213387;28;20011;-64
2023/11/04 02:58:17;;;;;;;;;;;;;;;23.32;34.73;98326.91;4213238;28;20539;-64
2023/11/04 03:00:18;;;;;;;;;;;;;;;23.50;34.63;98355.06;4213448;28;19959;-65
2023/11/04 03:02:20;;;;;;;;;;;;;;;23.52;34.82;98344.97;4213455;28;20389;-65
2023/11/04 03:04:22;;;;;;;;;;;;;;;23.54;34.93;98345.63;4195473;28;19925;-65
2023/11/04 03:06:23;;;;;;;;;;;;;;;23.56;34.62;98332.81;4213612;28;20005;-64
2023/11/04 03:08:26;;;;;;;;;;;;;;;23.56;34.74;98335.50;4213558;28;19925;-64
2023/11/04 03:10:27;;;;;;;;;;;;;;;23.57;34.62;98329.94;4213605;28;19924;-64
2023/11/04 03:12:29;;;;;;;;;;;;;;;23.56;35.06;98327.44;4213146;28;19963;-64
2023/11/04 03:14:30;;;;;;;;;;;;;;;23.55;34.89;98321.25;4213462;28;19931;-64
2023/11/04 03:16:32;;;;;;;;;;;;;;;23.54;34.71;98310.75;4213254;28;20377;-64
2023/11/04 03:18:33;;;;;;;;;;;;;;;23.52;34.68;98313.59;4213307;28;20425;-64
2023/11/04 03:20:35;;;;;;;;;;;;;;;23.52;34.82;98310.09;4213381;28;19924;-64
2023/11/04 03:22:37;;;;;;;;;;;;;;;23.56;34.71;98311.34;4214676;28;19955;-64
2023/11/04 03:24:42;;;;;;;;;;;;;;;23.56;34.88;98304.16;4216412;28;19985;-64
2023/11/04 03:26:44;;;;;;;;;;;;;;;23.58;34.79;98306.63;4198380;28;20398;-64
2023/11/04 03:28:46;;;;;;;;;;;;;;;23.60;34.74;98307.25;4215973;28;19925;-64
2023/11/04 03:30:47;;;;;;;;;;;;;;;23.54;34.62;98284.72;4216477;28;19924;-64
2023/11/04 03:32:49;;;;;;;;;;;;;;;23.59;34.65;98287.63;4216288;28;20285;-64
2023/11/04 03:34:50;;;;;;;;;;;;;;;23.58;34.71;98283.28;4216213;28;20254;-64
2023/11/04 03:36:52;;;;;;;;;;;;;;;23.58;34.94;98274.44;4216133;28;19978;-64
2023/11/04 03:38:54;;;;;;;;;;;;;;;23.56;34.68;98266.59;4216288;28;19935;-64
2023/11/04 03:40:55;;;;;;;;;;;;;;;23.56;34.71;98265.75;4216236;28;19928;-64
2023/11/04 03:42:57;;;;;;;;;;;;;;;23.55;34.99;98253.34;4215569;28;19924;-64
2023/11/04 03:44:58;;;;;;;;;;;;;;;23.56;34.94;98255.84;4216247;28;20035;-64
2023/11/04 03:47:00;;;;;;;;;;;;;;;23.58;34.98;98251.09;4216051;28;20010;-64
2023/11/04 03:49:02;;;;;;;;;;;;;;;23.59;34.54;98249.25;4215852;28;19997;-64
2023/11/04 03:51:04;;;;;;;;;;;;;;;23.60;34.52;98238.31;4215998;28;19924;-65
2023/11/04 03:53:06;;;;;;;;;;;;;;;23.61;34.55;98231.94;4215987;28;20421;-64
2023/11/04 03:55:08;;;;;;;;;;;;;;;23.61;34.48;98239.97;4215951;28;20553;-64
2023/11/04 03:57:09;;;;;;;;;;;;;;;23.61;34.55;98236.47;4215461;28;20292;-64
2023/11/04 03:59:11;;;;;;;;;;;;;;;23.60;34.90;98234.81;4215919;28;19924;-64
2023/11/04 04:01:12;;;;;;;;;;;;;;;23.57;34.65;98233.38;4215891;28;20343;-64
2023/11/04 04:03:14;;;;;;;;;;;;;;;23.56;34.80;98228.19;4216054;28;19932;-64
2023/11/04 04:05:16;;;;;;;;;;;;;;;23.56;34.88;98217.44;4215868;28;19924;-64
2023/11/04 04:07:17;;;;;;;;;;;;;;;23.57;34.63;98211.91;4215819;28;20441;-63
2023/11/04 04:09:19;;;;;;;;;;;;;;;23.59;34.57;98209.00;4215888;28;19962;-63
2023/11/04 04:11:22;;;;;;;;;;;;;;;23.61;34.70;98183.63;4215373;28;20037;-64
2023/11/04 04:13:24;;;;;;;;;;;;;;;23.63;34.52;98198.69;4215648;28;19932;-64
2023/11/04 04:15:26;;;;;;;;;;;;;;;23.64;34.76;98181.56;4216056;28;19924;-64
2023/11/04 04:17:27;;;;;;;;;;;;;;;23.65;34.70;98172.50;4215182;28;19931;-64
2023/11/04 04:19:29;;;;;;;;;;;;;;;23.63;34.72;98170.00;4215435;28;19954;-64
2023/11/04 04:21:31;;;;;;;;;;;;;;;23.63;34.51;98158.47;4215433;28;19963;-63
2023/11/04 04:23:32;;;;;;;;;;;;;;;23.61;34.85;98140.69;4197791;28;19932;-63
2023/11/04 04:25:34;;;;;;;;;;;;;;;23.61;34.54;98129.16;4215018;28;19974;-63
2023/11/04 04:27:36;;;;;;;;;;;;;;;23.59;34.75;98126.66;4215410;28;20370;-64
2023/11/04 04:29:37;;;;;;;;;;;;;;;23.60;34.58;98112.22;4215357;28;19927;-64
2023/11/04 04:31:39;;;;;;;;;;;;;;;23.63;34.58;98102.13;4215241;28;19924;-64
2023/11/04 04:33:41;;;;;;;;;;;;;;;23.64;34.75;98095.72;4215033;28;19924;-64
2023/11/04 04:35:43;;;;;;;;;;;;;;;23.67;34.59;98100.66;4215504;28;19997;-64
2023/11/04 04:37:44;;;;;;;;;;;;;;;23.67;34.58;98088.09;4215276;28;19955;-64
2023/11/04 04:39:46;;;;;;;;;;;;;;;23.65;34.85;98086.63;4215036;28;19924;-64
2023/11/04 04:41:47;;;;;;;;;;;;;;;23.64;34.48;98080.44;4215228;28;19963;-64
2023/11/04 04:43:49;;;;;;;;;;;;;;;23.65;34.77;98081.28;4215365;28;19924;-64
2023/11/04 04:45:50;;;;;;;;;;;;;;;23.63;34.76;98076.09;4215001;28;20001;-63
2023/11/04 04:47:52;;;;;;;;;;;;;;;23.62;34.79;98058.34;4215149;28;20310;-63
2023/11/04 04:49:53;;;;;;;;;;;;;;;23.63;34.71;98059.19;4214845;28;19970;-63
2023/11/04 04:51:55;;;;;;;;;;;;;;;23.63;34.64;98041.22;4215009;28;19935;-63
2023/11/04 04:53:56;;;;;;;;;;;;;;;23.66;34.59;98050.69;4214525;28;19955;-63
2023/11/04 04:55:58;;;;;;;;;;;;;;;23.67;34.75;98038.94;4214893;28;19989;-63
2023/11/04 04:57:59;;;;;;;;;;;;;;;23.69;34.86;98044.94;4214753;28;20412;-63
2023/11/04 05:00:06;;;;;;;;;;;;;;;23.68;34.52;98057.53;4215024;28;20304;-63
2023/11/04 05:02:07;;;;;;;;;;;;;;;23.68;34.61;98043.28;4214963;28;20296;-63
2023/11/04 05:04:09;;;;;;;;;;;;;;;23.67;34.68;98023.69;4214956;28;19924;-64
2023/11/04 05:06:10;;;;;;;;;;;;;;;23.66;34.54;98018.50;4214930;28;19931;-63
2023/11/04 05:08:12;;;;;;;;;;;;;;;23.65;34.58;98025.75;4214816;28;20385;-63
2023/11/04 05:10:14;;;;;;;;;;;;;;;23.65;34.59;98038.34;4214610;28;19924;-65
2023/11/04 05:12:15;;;;;;;;;;;;;;;23.65;34.67;98039.16;4214746;28;19928;-64
2023/11/04 05:14:17;;;;;;;;;;;;;;;23.66;34.60;98026.56;4214766;28;19974;-63
2023/11/04 05:16:18;;;;;;;;;;;;;;;23.66;34.72;98003.25;4214186;28;19925;-64
2023/11/04 05:18:20;;;;;;;;;;;;;;;23.68;34.64;97989.63;4214740;28;20365;-64
2023/11/04 05:20:22;;;;;;;;;;;;;;;23.68;34.40;97982.41;4214845;28;20389;-63
2023/11/04 05:22:23;;;;;;;;;;;;;;;23.69;34.53;98000.13;4214904;28;19931;-63
2023/11/04 05:24:26;;;;;;;;;;;;;;;23.70;34.64;98003.66;4214425;28;20320;-63
2023/11/04 05:26:27;;;;;;;;;;;;;;;23.70;34.71;97998.28;4214647;28;19936;-63
2023/11/04 05:28:31;;;;;;;;;;;;;;;23.67;34.78;97996.84;4196609;28;19931;-63
2023/11/04 05:30:34;;;;;;;;;;;;;;;23.66;34.93;98005.94;4214492;28;19924;-63
2023/11/04 05:32:36;;;;;;;;;;;;;;;23.65;34.66;98015.00;4214526;28;19963;-63
2023/11/04 05:34:38;;;;;;;;;;;;;;;23.64;34.87;98010.66;4214463;28;19955;-63
2023/11/04 05:36:40;;;;;;;;;;;;;;;23.66;34.95;98010.47;4214188;28;19951;-63
2023/11/04 05:38:41;;;;;;;;;;;;;;;23.66;34.81;98005.09;4213993;28;20235;-64
2023/11/04 05:40:43;;;;;;;;;;;;;;;23.67;34.76;97988.81;4214268;28;20047;-64
2023/11/04 05:42:45;;;;;;;;;;;;;;;23.68;34.87;97985.09;4214343;28;20018;-62
2023/11/04 05:44:47;;;;;;;;;;;;;;;23.69;34.83;97981.34;4213404;28;19931;-63
2023/11/04 05:46:48;;;;;;;;;;;;;;;23.69;34.49;97969.81;4196117;28;19924;-64
2023/11/04 05:48:50;;;;;;;;;;;;;;;23.69;34.95;97957.22;4214145;28;19931;-63
2023/11/04 05:50:52;;;;;;;;;;;;;;;23.68;34.78;97949.38;4214334;28;20294;-63
2023/11/04 05:52:53;;;;;;;;;;;;;;;23.67;34.99;97935.16;4213898;28;20388;-63
2023/11/04 05:54:55;;;;;;;;;;;;;;;23.67;34.86;97935.16;4213889;28;19975;-63
2023/11/04 05:56:56;;;;;;;;;;;;;;;23.68;34.77;97927.91;4214079;28;20022;-63
2023/11/04 05:58:58;;;;;;;;;;;;;;;23.67;34.97;97929.78;4214197;28;19962;-63
2023/11/04 06:00:59;;;;;;;;;;;;;;;23.70;34.87;97909.75;4213829;28;19932;-64
2023/11/04 06:03:01;;;;;;;;;;;;;;;23.69;35.18;97905.41;4213826;28;19928;-63
2023/11/04 06:05:03;;;;;;;;;;;;;;;23.71;34.73;97904.16;4213974;28;19924;-64
2023/11/04 06:07:04;;;;;;;;;;;;;;;23.72;34.78;97889.72;4213718;28;19988;-63
2023/11/04 06:09:06;;;;;;;;;;;;;;;23.73;34.88;97888.69;4213722;28;19928;-63
2023/11/04 06:11:07;;;;;;;;;;;;;;;23.73;34.86;97874.44;4213958;28;19931;-63
2023/11/04 06:13:09;;;;;;;;;;;;;;;23.71;34.79;97858.56;4213850;28;19935;-63
2023/11/04 06:15:10;;;;;;;;;;;;;;;23.70;34.98;97867.63;4213834;28;19924;-63
2023/11/04 06:17:12;;;;;;;;;;;;;;;23.67;34.82;97860.00;4213665;28;20413;-63
2023/11/04 06:19:14;;;;;;;;;;;;;;;23.54;35.02;97827.84;4213566;28;19924;-66
2023/11/04 06:21:16;;;;;;;;;;;;;;;23.67;35.00;97835.88;4213529;28;20455;-63
2023/11/04 06:23:17;;;;;;;;;;;;;;;23.69;34.89;97825.72;4213931;28;19924;-63
2023/11/04 06:25:19;;;;;;;;;;;;;;;23.69;35.05;97816.88;4213482;28;19924;-63
2023/11/04 06:27:21;;;;;;;;;;;;;;;23.70;34.96;97807.78;4213737;28;19924;-64
2023/11/04 06:29:27;;;;;;;;;;;;;;;23.71;35.35;97801.38;4213852;28;20023;-63
2023/11/04 06:31:29;;;;;;;;;;;;;;;23.72;35.13;97777.03;4195749;28;19925;-63
2023/11/04 06:33:31;;;;;;;;;;;;;;;23.72;35.10;97786.91;4213829;28;19946;-64
2023/11/04 06:35:33;;;;;;;;;;;;;;;23.69;34.84;97771.25;4213406;28;19924;-64
2023/11/04 06:37:38;;;;;;;;;;;;;;;23.66;35.06;97759.09;4213518;28;19961;-63
2023/11/04 06:39:40;;;;;;;;;;;;;;;23.63;35.07;97751.44;4213387;28;19928;-64
2023/11/04 06:41:43;;;;;;;;;;;;;;;23.61;35.21;97759.72;4213793;28;19924;-63
2023/11/04 06:43:45;;;;;;;;;;;;;;;23.61;35.25;97746.31;4213742;28;19962;-63
2023/11/04 06:45:47;;;;;;;;;;;;;;;23.64;35.10;97744.25;4213812;28;20022;-64
2023/11/04 06:47:48;;;;;;;;;;;;;;;23.44;35.44;97702.22;4213747;28;19932;-64
2023/11/04 06:49:50;;;;;;;;;;;;;;;23.65;35.19;97725.25;4212994;28;19978;-64
2023/11/04 06:51:57;;;;;;;;;;;;;;;23.66;35.13;97700.06;4213444;28;19934;-63
2023/11/04 06:54:00;;;;;;;;;;;;;;;23.66;35.14;97689.31;4213470;28;20019;-63
2023/11/04 06:56:02;;;;;;;;;;;;;;;23.67;35.17;97684.78;4214245;28;19927;-63
2023/11/04 06:58:04;;;;;;;;;;;;;;;23.66;35.18;97665.19;4216991;28;19966;-64
2023/11/04 07:00:08;;;;;;;;;;;;;;;23.64;35.26;97653.03;4216040;28;21444;-64
2023/11/04 07:02:09;;;;;;;;;;;;;;;23.62;35.16;97645.16;4198807;28;20374;-64
2023/11/04 07:04:11;;;;;;;;;;;;;;;23.63;35.37;97638.78;4216688;28;19930;-64
2023/11/04 07:06:16;;;;;;;;;;;;;;;23.63;35.29;97638.78;4198541;28;19931;-64
2023/11/04 07:08:18;;;;;;;;;;;;;;;23.64;35.32;97627.00;4216912;28;19924;-63
2023/11/04 07:10:20;;;;;;;;;;;;;;;23.67;35.52;97629.28;4216682;28;19931;-63
2023/11/04 07:12:21;;;;;;;;;;;;;;;23.66;35.57;97624.09;4217127;28;20304;-63
2023/11/04 07:14:24;;;;;;;;;;;;;;;23.67;35.30;97598.91;4216529;28;19938;-64
2023/11/04 07:16:25;;;;;;;;;;;;;;;23.67;35.33;97586.34;4216725;28;20044;-64
2023/11/04 07:18:27;;;;;;;;;;;;;;;23.65;35.25;97583.03;4216598;28;19924;-63
2023/11/04 07:20:29;;;;;;;;;;;;;;;23.66;35.27;97562.38;4216282;28;19924;-64
2023/11/04 07:22:30;;;;;;;;;;;;;;;23.64;35.24;97548.41;4216849;28;19924;-63
2023/11/04 07:24:34;;;;;;;;;;;;;;;23.62;35.46;97553.97;4216798;28;19928;-63
2023/11/04 07:26:36;;;;;;;;;;;;;;;23.61;35.39;97530.88;4216284;28;20436;-63
2023/11/04 07:28:37;;;;;;;;;;;;;;;23.63;35.64;97512.69;4216510;28;19985;-62
2023/11/04 07:30:44;;;;;;;;;;;;;;;23.65;35.57;97512.47;4216466;28;20003;-63
2023/11/04 07:32:46;;;;;;;;;;;;;;;23.66;35.34;97501.53;4216518;28;19927;-63
2023/11/04 07:34:47;;;;;;;;;;;;;;;23.66;35.42;97493.47;4215943;28;20313;-63
2023/11/04 07:36:49;;;;;;;;;;;;;;;23.58;35.30;97466.91;4216204;28;19924;-63
2023/11/04 07:38:54;;;;;;;;;;;;;;;23.67;35.54;97472.81;4216225;28;19924;-62
2023/11/04 07:40:56;;;;;;;;;;;;;;;23.66;35.64;97482.75;4216358;28;19935;-62
2023/11/04 07:42:57;;;;;;;;;;;;;;;23.65;35.38;97481.09;4216179;28;19978;-64
2023/11/04 07:44:59;;;;;;;;;;;;;;;23.63;35.27;97464.38;4216296;28;19932;-63
2023/11/04 07:47:01;;;;;;;;;;;;;;;23.63;35.62;97474.31;4216100;28;19955;-62
2023/11/04 07:49:02;;;;;;;;;;;;;;;23.63;35.40;97450.97;4215729;28;19924;-64
2023/11/04 07:51:04;;;;;;;;;;;;;;;23.63;35.65;97450.16;4216094;28;20293;-63
2023/11/04 07:53:06;;;;;;;;;;;;;;;23.62;35.46;97433.22;4216300;28;19970;-64
2023/11/04 07:55:10;;;;;;;;;;;;;;;23.62;35.47;97425.19;4215873;28;20089;-63
2023/11/04 07:57:12;;;;;;;;;;;;;;;23.65;35.50;97405.16;4216070;28;20386;-63
2023/11/04 07:59:13;;;;;;;;;;;;;;;23.66;35.45;97391.53;4198088;28;20414;-64
2023/11/04 08:01:19;;;;;;;;;;;;;;;23.66;35.39;97404.09;4216024;28;19928;-63
2023/11/04 08:03:22;;;;;;;;;;;;;;;23.66;35.75;97390.69;4215617;28;19931;-63
2023/11/04 08:05:24;;;;;;;;;;;;;;;23.65;35.45;97372.97;4215912;28;20035;-63
2023/11/04 08:07:26;;;;;;;;;;;;;;;23.63;35.73;97362.44;4215415;28;19924;-63
2023/11/04 08:09:28;;;;;;;;;;;;;;;23.63;35.58;97361.66;4215653;28;19924;-63
2023/11/04 08:11:29;;;;;;;;;;;;;;;23.61;35.57;97359.19;4215938;28;20476;-63
2023/11/04 08:13:31;;;;;;;;;;;;;;;23.61;35.64;97343.91;4215884;28;19924;-63
2023/11/04 08:15:34;;;;;;;;;;;;;;;23.63;35.53;97324.09;4197949;28;19924;-63
2023/11/04 08:17:35;;;;;;;;;;;;;;;23.63;35.94;97311.47;4215155;28;20019;-63
2023/11/04 08:19:37;;;;;;;;;;;;;;;23.64;35.56;97302.41;4215685;28;19924;-64
2023/11/04 08:21:39;;;;;;;;;;;;;;;23.66;35.54;97292.28;4215740;28;19956;-63
2023/11/04 08:23:40;;;;;;;;;;;;;;;23.66;35.51;97297.63;4215612;28;19986;-62
2023/11/04 08:25:42;;;;;;;;;;;;;;;23.67;35.48;97303.81;4215619;28;19924;-63
2023/11/04 08:27:43;;;;;;;;;;;;;;;23.65;35.42;97296.00;4215628;28;20404;-62
2023/11/04 08:29:45;;;;;;;;;;;;;;;23.65;35.54;97303.22;4215593;28;19924;-62
2023/11/04 08:31:47;;;;;;;;;;;;;;;23.65;35.54;97287.13;4215272;28;19955;-62
2023/11/04 08:33:48;;;;;;;;;;;;;;;23.63;35.98;97287.34;4215486;28;20397;-61
2023/11/04 08:35:50;;;;;;;;;;;;;;;23.63;36.01;97275.78;4197342;28;20309;-63
2023/11/04 08:37:52;;;;;;;;;;;;;;;23.64;35.67;97285.50;4215383;28;19924;-63
2023/11/04 08:39:54;;;;;;;;;;;;;;;23.66;35.87;97289.59;4215140;28;20441;-63
2023/11/04 08:41:56;;;;;;;;;;;;;;;23.67;35.50;97285.88;4215133;28;19928;-62
2023/11/04 08:43:58;;;;;;;;;;;;;;;23.68;35.56;97276.78;4215321;28;19993;-63
2023/11/04 08:45:59;;;;;;;;;;;;;;;23.69;35.75;97278.38;4214999;28;19993;-63
2023/11/04 08:48:01;;;;;;;;;;;;;;;23.70;35.65;97276.53;4215273;28;19985;-62
2023/11/04 08:50:03;;;;;;;;;;;;;;;23.69;35.51;97264.16;4215053;28;19956;-62
2023/11/04 08:52:04;;;;;;;;;;;;;;;23.67;35.85;97245.63;4215036;28;19924;-63
2023/11/04 08:54:09;;;;;;;;;;;;;;;23.65;35.77;97236.16;4215062;28;19924;-63
2023/11/04 08:56:10;;;;;;;;;;;;;;;23.65;35.57;97238.84;4215200;28;19928;-62
2023/11/04 08:58:12;;;;;;;;;;;;;;;23.65;36.06;97228.91;4197216;28;19924;-62
2023/11/04 09:00:14;;;;;;;;;;;;;;;23.67;35.82;97228.69;4214770;28;19924;-62
2023/11/04 09:02:15;;;;;;;;;;;;;;;23.68;35.66;97220.44;4214885;28;19985;-62
2023/11/04 09:04:17;;;;;;;;;;;;;;;23.69;35.98;97238.16;4215010;28;20011;-63
2023/11/04 09:06:29;;;;;;;;;;;;;;;23.71;35.54;97246.81;4214933;28;19924;-62
2023/11/04 09:08:31;;;;;;;;;;;;;;;23.72;35.60;97237.72;4214824;28;20352;-63
2023/11/04 09:10:32;;;;;;;;;;;;;;;23.72;35.70;97247.59;4214742;28;20365;-63
2023/11/04 09:12:34;;;;;;;;;;;;;;;23.71;35.70;97230.69;4214680;28;19925;-62
2023/11/04 09:14:36;;;;;;;;;;;;;;;23.70;35.99;97215.66;4214848;28;19928;-62
2023/11/04 09:16:37;;;;;;;;;;;;;;;23.69;36.02;97218.56;4214570;28;19971;-63
2023/11/04 09:18:39;;;;;;;;;;;;;;;23.69;35.73;97216.69;4196575;28;20322;-63
2023/11/04 09:20:41;;;;;;;;;;;;;;;23.70;35.73;97204.91;4213642;28;19928;-63
2023/11/04 09:22:43;;;;;;;;;;;;;;;23.71;35.86;97198.50;4214436;28;20369;-63
2023/11/04 09:24:44;;;;;;;;;;;;;;;23.74;35.94;97203.44;4214692;28;19931;-63
2023/11/04 09:26:46;;;;;;;;;;;;;;;23.75;35.84;97201.56;4214549;28;19924;-63
2023/11/04 09:28:48;;;;;;;;;;;;;;;23.77;35.69;97192.22;4214614;28;19928;-63
2023/11/04 09:30:51;;;;;;;;;;;;;;;23.78;35.77;97203.81;4213954;28;19954;-63
2023/11/04 09:32:53;;;;;;;;;;;;;;;23.79;35.71;97201.94;4214483;28;19924;-64
2023/11/04 09:34:56;;;;;;;;;;;;;;;23.77;35.95;97186.06;4214349;28;19963;-63
2023/11/04 09:36:57;;;;;;;;;;;;;;;23.75;35.74;97194.31;4214466;28;20077;-63
2023/11/04 09:38:59;;;;;;;;;;;;;;;23.75;35.73;97190.81;4214284;28;19931;-63
2023/11/04 09:41:01;;;;;;;;;;;;;;;23.74;35.69;97187.34;4214474;28;20380;-63
2023/11/04 09:43:02;;;;;;;;;;;;;;;23.74;36.24;97191.88;4214377;28;19935;-64
2023/11/04 09:45:04;;;;;;;;;;;;;;;23.75;36.00;97194.31;4214053;28;20023;-62
2023/11/04 09:47:06;;;;;;;;;;;;;;;23.77;35.77;97184.19;4214110;28;19930;-62
2023/11/04 09:49:07;;;;;;;;;;;;;;;23.79;35.81;97183.94;4213983;28;20007;-62
2023/11/04 09:51:12;;;;;;;;;;;;;;;23.80;35.79;97190.97;4214194;28;19924;-63
2023/11/04 09:53:23;;;;;;;;;;;;;;;23.82;35.73;97182.69;4214366;28;19938;-62
2023/11/04 09:55:26;;;;;;;;;;;;;;;23.82;35.67;97172.78;4214240;28;19966;-65
2023/11/04 09:57:28;;;;;;;;;;;;;;;23.75;35.82;97150.59;4196160;28;20361;-63
2023/11/04 09:59:32;;;;;;;;;;;;;;;23.81;35.88;97171.13;4213581;28;19955;-66
2023/11/04 10:01:33;;;;;;;;;;;;;;;23.81;35.93;97170.31;4214017;28;20400;-64
2023/11/04 10:03:35;;;;;;;;;;;;;;;23.81;36.00;97175.69;4214204;28;20373;-64
2023/11/04 10:05:37;;;;;;;;;;;;;;;23.80;36.15;97161.44;4214147;28;19924;-64
2023/11/04 10:07:39;;;;;;;;;;;;;;;23.82;36.21;97155.88;4213939;28;19930;-63
2023/11/04 10:09:43;;;;;;;;;;;;;;;23.83;36.28;97157.47;4214292;28;19924;-63
2023/11/04 10:11:45;;;;;;;;;;;;;;;23.84;36.26;97164.50;4213976;28;19974;-65
2023/11/04 10:13:46;;;;;;;;;;;;;;;23.85;36.59;97158.09;4209713;28;20429;-65
2023/11/04 10:15:48;;;;;;;;;;;;;;;23.85;36.66;97155.41;4205475;28;19935;-65
2023/11/04 10:17:50;;;;;;;;;;;;;;;23.85;36.57;97150.03;4202017;28;19947;-64
2023/11/04 10:19:52;;;;;;;;;;;;;;;23.86;36.62;97135.56;4213619;28;19987;-64
2023/11/04 10:21:53;;;;;;;;;;;;;;;23.84;36.78;97138.50;4213261;28;19928;-64
2023/11/04 10:23:55;;;;;;;;;;;;;;;23.84;36.76;97135.81;4213612;28;19928;-66
2023/11/04 10:26:03;;;;;;;;;;;;;;;23.83;36.72;97138.69;4213576;28;19930;-63
2023/11/04 10:28:05;;;;;;;;;;;;;;;23.85;36.77;97134.75;4213205;28;19927;-62
2023/11/04 10:30:07;;;;;;;;;;;;;;;23.87;37.09;97127.28;4200177;28;19931;-62
2023/11/04 10:32:11;;;;;;;;;;;;;;;23.88;37.35;97117.38;4196759;28;20348;-62
2023/11/04 10:34:14;;;;;;;;;;;;;;;23.89;36.88;97116.31;4197141;28;19947;-63
2023/11/04 10:36:17;;;;;;;;;;;;;;;23.89;37.24;97109.09;4213457;28;20031;-63